默认 日期 大小 文件数 浏览量 最新下载 xml
tvb-磁力链接相关资源由用户搜索指令自动获取,结果来源于网络,本站不存储任何资料,亦不承担任何责任,请于24小时内删除,搜索到4772个磁力,显示前4000条数据,用时4ms。
    {"Ruse of Engagement-12-2014-4-1.rmvb": 247487879, "Ruse of Engagement-13-2014-4-2.rmvb": 235921013, "Ruse of Engagement-14-2014-4-3.rmvb": 229377447, "Ruse of Engagement-15-2014-4-4.rmvb": 229523498, "Ruse of Engagement-16-2014-4-7.rmvb": 226829169, "Ruse ...
创建时间: 2018-11-25 15:41:34 大小:5.47 GB 文件数量:99 热度:19 最近下载:2025-03-28 19:15:02
    ... Ա��ϵQQ5131280.txt": 49, "TVB�ֿ�,��� ...
创建时间: 2018-11-25 17:47:30 大小:5.67 GB 文件数量:40 热度:11 最近下载:2023-04-19 11:20:06
    {"All That Is Bitter Is Sweet-01-2014-9-8.rmvb": 318355693, "All That Is Bitter Is Sweet-02-2014-9-9.rmvb": 250505530, "All That Is Bitter Is Sweet-03-2014-9-10.rmvb": 281728572, "All That Is Bitter Is Sweet-04-2014-9-11.rmvb": 256185074, "All That Is ...
创建时间: 2018-11-25 18:43:43 大小:7.67 GB 文件数量:115 热度:15 最近下载:2025-02-21 17:58:02
    {"阿Sir早晨.1994.DVDRip.双语字幕.EP01.mkv": 188744650, "阿Sir早晨.1994.DVDRip.双语字幕.EP02.mkv": 184829382, "阿Sir早晨.1994.DVDRip.双语字幕.EP03.mkv": 187559779, "阿Sir早晨.1994.DVDRip.双语字幕.EP04.mkv": 189144952, "阿Sir早晨.1994.DVDRip.双语字幕.EP05.mkv": 188519404, "阿Sir早晨.1994.DVDRip. ...
创建时间: 2018-11-25 20:35:41 大小:3.51 GB 文件数量:20 热度:50 最近下载:2025-10-09 16:38:02
    {"[QxTSR]������ʹ3D-05.������Ļ.D-vb.hyunf.rmvb": 221251967, "[QxTSR]������ʹ3D-06.������Ļ.D-vb.hyunf.rmvb": 224064684, "[QxTSR]������ʹ3D-07.������Ļ.D-vb.hyunf.rmvb": 221168386, "[QxTSR]������ʹ3D-08.������Ļ.D-vb.hyunf.rmvb": 223094866, "[QxTSR]������ʹ3D-09.�� ...
创建时间: 2018-11-25 22:17:14 大小:4.28 GB 文件数量:22 热度:9 最近下载:2023-04-19 13:30:05
    {"CFS��@lp3999����.txt": 0, "��Ӱ����ҳ��.url": 76, "��Ӱ��̳ �ḻ����.url": 77, "[HTTPFTP]���ұ�ɫ01.Bush.t-vb.rmvb": 256563951, "[HTTPFTP]���ұ�ɫ02.Bush.t-vb.rmvb": 238092515, "[HTTPFTP]���ұ�ɫ03.Bush.t-vb.rmvb": 237218547, "[HTTPFTP]���ұ�ɫ04.Bush.t-vb.rmvb": ...
创建时间: 2018-11-27 00:39:12 大小:4.48 GB 文件数量:24 热度:14 最近下载:2025-08-02 13:08:07
    ... R�W��TVB.url": 11714, "[� ... 248632508, "[�W��TVB�s�u� ... 246347716, "[�W��TVB�s�u� ... 260301125, "[�W��TVB�s�u� ... 220512256, "[�W��TVB�s�u� ... 246024047, "[�W��TVB�s�u� ... 247591842, "[�W��TVB�s�u� ... 237735201, "[�W��TVB�s�u� ... 256883227, "[�W��TVB�s�u� ... 249845958, "[�W��TVB�s�u� ...
创建时间: 2018-11-27 04:11:31 大小:2.28 GB 文件数量:12 热度:14 最近下载:2025-08-02 21:31:06
    {"倚天屠龙记.2000.jpg": 137588, "倚天屠龙记.E01.2000.DVDRip.x264.AC3.2Audios-CMCT.mkv": 713927387, "倚天屠龙记.E02.2000.DVDRip.x264.AC3.2Audios-CMCT.mkv": 736269145, "倚天屠龙记.E03.2000.DVDRip.x264.AC3.2Audios-CMCT.mkv": 750043015, "倚天屠龙记.E04.2000.DVDRip.x264.AC3.2Audios- ...
创建时间: 2018-11-27 07:01:12 大小:27.08 GB 文件数量:85 热度:256 最近下载:2025-10-10 21:15:03
    {"济公01.rmvb": 242116902, "济公02.rmvb": 242716052, "济公03.rmvb": 243768123, "济公04.rmvb": 244216608, "济公05.rmvb": 242493722, "济公06.rmvb": 243477271, "济公07.rmvb": 244691560, "济公08.rmvb": 311216502, "济公09.rmvb": 241782721, "济公10.rmvb": 257341985, "济公11.rmvb": ...
创建时间: 2018-11-27 11:20:25 大小:4.63 GB 文件数量:20 热度:59 最近下载:2025-08-12 20:14:01
    ... ��Ѳμ�.txt": 2433, "TVB�ֿ�,��� ...
创建时间: 2018-11-27 16:39:32 大小:2.94 GB 文件数量:33 热度:20 最近下载:2025-07-30 09:11:03
    {"天地男儿21.mpg": 1170401280, "天地男儿22.mpg": 1041874944, "天地男儿23.mpg": 1031872512, "天地男儿24.mpg": 1167642624, "天地男儿25.mpg": 1066407936, "天地男儿26.mpg": 1035499520, "天地男儿27.mpg": 1073928192, "天地男儿28.mpg": 1107468288, "天地男儿29.mpg": 981231616, "天地男儿30.mpg": ...
创建时间: 2018-11-27 20:48:12 大小:20.56 GB 文件数量:39 热度:124 最近下载:2025-10-10 19:25:03
    ... ���.txt": 643, "[TVB][����ʦ� ... - powered by Discuz!.url": 47}, "[TVB][����ʦ� ... - powered by Discuz!.url": 47, "[TVB][����ʦ� ...
创建时间: 2018-11-27 21:40:10 大小:14.94 GB 文件数量:139 热度:25 最近下载:2025-07-03 23:19:02
    {"FK影视-每星期六开放注册.url": 2095, "[清晰电影观看][www.qc09.com].txt": 0, "上WWW.GO654.COM寻找电影片源.txt": 0, "FK影视论坛-每星期六开放注册.url": 2104, "FK影视,动漫,电影,电视剧,综艺娱乐.url": 163, "[FK]巴不得爸爸-01.粤语字幕.DVD-RMVB.Rex.rmvb": 220221349, "[FK]巴不得爸爸-02.粤语字幕.DVD-RMVB.Rex.rmvb": 205549853, "[ ...
创建时间: 2018-11-28 07:30:13 大小:4.23 GB 文件数量:27 热度:99 最近下载:2025-10-11 11:59:01
    {"[FK影视出品]马场大亨.EP01.双语中字.DVD.X264.Rex.mkv": 452565422, "[FK影视出品]马场大亨.EP02.双语中字.DVD.X264.Rex.mkv": 449632480, "[FK影视出品]马场大亨.EP03.双语中字.DVD.X264.Rex.mkv": 455589044, "[FK影视出品]马场大亨.EP04.双语中字.DVD.X264.Rex.mkv": 451588852, "[FK影视出品]马场大亨.EP05.双语中字.DVD.X264.Rex. ...
创建时间: 2018-11-28 07:39:57 大小:16.76 GB 文件数量:40 热度:82 最近下载:2025-10-12 08:37:04
    {"CFS��@lp3999����.txt": 0, "��Ӱ����ҳ��.url": 76, "��Ӱ��̳ �ḻ����.url": 77, "[HSTV]�Ƶ�����-01.siwei.D2R.rmvb": 234042489, "[HSTV]�Ƶ�����-02.siwei.D2R.rmvb": 235150272, "[HSTV]�Ƶ�����-03.siwei.D2R.rmvb": 234341659, "[HSTV]�Ƶ�����-04.siwei.D2R.rmvb": ...
创建时间: 2018-11-28 12:35:56 大小:6.53 GB 文件数量:34 热度:14 最近下载:2025-03-13 04:54:02
    {"tv.dd": 4096256, "Lady Sour-01-2014-12-1.rmvb": 406031183, "Lady Sour-02-2014-12-2.rmvb": 407182452, "Lady Sour-03-2014-12-3.rmvb": 405567708, "Lady Sour-04-2014-12-4.rmvb": 410873115, "Lady Sour-05-2014-12-5.rmvb": 386172106, "Lady Sour-06-2014-12-8. ...
创建时间: 2018-11-28 23:19:36 大小:7.22 GB 文件数量:77 热度:21 最近下载:2025-09-30 11:27:02
    {"聲明(繁).txt": 449, "涼宮春日的憂鬱 第26話 「LIVE ALIVE」 (D-J2 720x576 AVC AACx2).idx": 22734, "涼宮春日的憂鬱 第26話 「LIVE ALIVE」 (D-J2 720x576 AVC AACx2).mkv": 308710484, "涼宮春日的憂鬱 第26話 「LIVE ALIVE」 (D-J2 720x576 AVC AACx2).sub": 1447936, "涼宮春日的憂鬱 第09話 「MYSTIC SIGN」 (D-J2 ...
创建时间: 2018-11-29 00:23:29 大小:7.14 GB 文件数量:85 热度:25 最近下载:2025-08-21 06:53:01
    {"[FK影视出品]反黑先锋.1999.EP01.双语字幕.TVRip.X264.aa88.mkv": 318856531, "[FK影视出品]反黑先锋.1999.EP02.双语字幕.TVRip.X264.aa88.mkv": 318551436, "[FK影视出品]反黑先锋.1999.EP03.双语字幕.TVRip.X264.aa88.mkv": 320063253, "[FK影视出品]反黑先锋.1999.EP04.双语字幕.TVRip.X264.aa88.mkv": 314538931, "[FK影视出 ...
创建时间: 2018-11-29 07:39:24 大小:6.49 GB 文件数量:22 热度:70 最近下载:2025-10-05 14:52:01
    {"[QxTSR]��������-01.����.D-vb.����.rmvb": 211621308, "[QxTSR]��������-02.����.D-vb.����.rmvb": 211220977, "[QxTSR]��������-03.����.D-vb.����.rmvb": 208594092, "[QxTSR]��������-04.����.D-vb.����.rmvb": 212375690, "[QxTSR]��������-05.����.D-vb.����. ...
创建时间: 2018-11-29 17:26:38 大小:3.92 GB 文件数量:41 热度:10 最近下载:2023-04-20 12:10:05
    ... R�W��TVB.url": 11714, "��� ... ��W��TVB ԭ��BT�� ... ��W��TVB�� - powered by phpwind ...
创建时间: 2018-11-29 22:33:04 大小:3.99 GB 文件数量:47 热度:18 最近下载:2025-01-09 16:27:04